createdAt,value
2022-08-30T00:01:59.163Z,87.46
2022-08-30T00:04:26.303Z,88.05
2022-08-30T00:06:53.071Z,88.12
2022-08-30T00:09:19.582Z,88.17
2022-08-30T00:11:46.083Z,88.45
2022-08-30T00:14:12.545Z,88.64
2022-08-30T00:16:38.958Z,88.41
2022-08-30T00:19:05.379Z,88.14
2022-08-30T00:21:32.692Z,88.47
2022-08-30T00:23:59.100Z,88.74
2022-08-30T00:26:25.527Z,88.85
2022-08-30T00:28:52.799Z,88.93
2022-08-30T00:31:19.299Z,88.79
2022-08-30T00:33:45.746Z,88.85
2022-08-30T00:36:12.173Z,88.86
2022-08-30T00:38:38.768Z,89.22
2022-08-30T00:41:05.363Z,89.06
2022-08-30T00:43:34.548Z,88.94
2022-08-30T00:46:04.555Z,89.31
2022-08-30T00:48:33.312Z,89.38
2022-08-30T00:51:03.683Z,89.67
2022-08-30T00:53:36.577Z,89.46
2022-08-30T00:56:04.379Z,89.57
2022-08-30T00:58:38.010Z,89.36
2022-08-30T01:01:08.003Z,90.15
2022-08-30T01:03:36.741Z,90.18
2022-08-30T01:06:04.807Z,90.22
2022-08-30T01:08:31.690Z,90.32
2022-08-30T01:10:59.144Z,90.23
2022-08-30T01:13:28.796Z,90.67
2022-08-30T01:15:55.873Z,90.75
2022-08-30T01:18:23.943Z,90.80
2022-08-30T01:21:01.278Z,90.60
2022-08-30T01:23:28.739Z,90.87
2022-08-30T01:25:56.106Z,91.41
2022-08-30T01:28:25.828Z,91.24
2022-08-30T01:30:53.187Z,91.46
2022-08-30T01:33:21.407Z,91.77
2022-08-30T01:35:58.589Z,91.60
2022-08-30T01:38:56.156Z,91.70
2022-08-30T01:41:25.998Z,91.61
2022-08-30T01:43:55.046Z,91.88
2022-08-30T01:46:24.381Z,91.69
2022-08-30T01:48:53.960Z,91.43
2022-08-30T01:51:23.107Z,91.53
2022-08-30T01:53:49.790Z,91.65
2022-08-30T01:56:16.675Z,92.00
2022-08-30T01:58:44.032Z,91.96
2022-08-30T02:01:14.011Z,91.88
2022-08-30T02:03:43.149Z,92.20
2022-08-30T02:06:16.450Z,92.18
2022-08-30T02:08:43.519Z,92.21
2022-08-30T02:11:11.527Z,92.27
2022-08-30T02:13:40.031Z,92.50
2022-08-30T02:16:08.840Z,92.46
2022-08-30T02:18:36.730Z,92.32
2022-08-30T02:21:03.323Z,92.76
2022-08-30T02:23:29.858Z,92.73
2022-08-30T02:25:56.297Z,92.92
2022-08-30T02:28:22.888Z,92.72
2022-08-30T02:30:52.487Z,93.03
2022-08-30T02:33:19.103Z,93.04
2022-08-30T02:35:45.564Z,92.86
2022-08-30T02:38:12.048Z,93.21
2022-08-30T02:40:39.262Z,93.02
2022-08-30T02:43:06.027Z,93.42
2022-08-30T02:45:32.717Z,93.42
2022-08-30T02:47:59.312Z,93.75
2022-08-30T02:50:25.841Z,93.77
2022-08-30T02:52:52.665Z,94.33
2022-08-30T02:55:20.995Z,94.08
2022-08-30T02:57:47.706Z,94.31
2022-08-30T03:00:17.201Z,94.13
2022-08-30T03:02:43.657Z,93.96
2022-08-30T03:05:12.919Z,94.27
2022-08-30T03:07:40.805Z,94.49
2022-08-30T03:10:07.836Z,94.39
2022-08-30T03:12:34.586Z,94.16
2022-08-30T03:15:01.187Z,94.35
2022-08-30T03:17:27.724Z,94.47
2022-08-30T03:19:54.263Z,94.19
2022-08-30T03:22:20.769Z,94.58
2022-08-30T03:24:47.213Z,94.66
2022-08-30T03:27:13.710Z,94.86
2022-08-30T03:29:40.176Z,94.71
2022-08-30T03:32:07.742Z,94.39
2022-08-30T03:34:34.222Z,94.69
2022-08-30T03:37:01.547Z,94.69
2022-08-30T03:39:28.196Z,94.77
2022-08-30T03:41:54.626Z,94.96
2022-08-30T03:44:21.638Z,94.90
2022-08-30T03:46:48.438Z,94.71
2022-08-30T03:49:15.255Z,95.27
2022-08-30T03:51:41.752Z,95.34
2022-08-30T03:54:08.215Z,95.44
2022-08-30T03:56:34.699Z,95.34
2022-08-30T03:59:01.510Z,95.39
2022-08-30T04:01:27.937Z,95.24
2022-08-30T04:03:54.686Z,95.53
2022-08-30T04:06:21.362Z,95.40
2022-08-30T04:08:47.887Z,95.92
2022-08-30T04:11:17.695Z,95.68
2022-08-30T04:13:44.410Z,95.66
2022-08-30T04:16:10.871Z,95.75
2022-08-30T04:18:37.424Z,95.66
2022-08-30T04:21:04.655Z,95.56
2022-08-30T04:23:31.228Z,95.58
2022-08-30T04:25:58.002Z,95.63
2022-08-30T04:28:24.537Z,95.57
2022-08-30T04:30:51.117Z,95.45
2022-08-30T04:33:17.757Z,95.34
2022-08-30T04:35:47.829Z,95.68
2022-08-30T04:38:15.812Z,96.11
2022-08-30T04:40:44.073Z,95.80
2022-08-30T04:43:12.777Z,95.80
2022-08-30T04:45:40.430Z,95.69
2022-08-30T04:48:07.755Z,95.78
2022-08-30T04:50:34.423Z,96.04
2022-08-30T04:53:11.812Z,96.38
2022-08-30T04:55:40.726Z,95.78
2022-08-30T04:58:07.244Z,96.15
2022-08-30T05:00:33.891Z,96.04
2022-08-30T05:03:00.820Z,96.20
2022-08-30T05:05:39.753Z,96.20
2022-08-30T05:08:14.067Z,96.07
2022-08-30T05:10:46.956Z,95.93
2022-08-30T05:13:14.932Z,96.11
2022-08-30T05:15:42.092Z,95.80
2022-08-30T05:18:13.292Z,96.00
2022-08-30T05:20:40.744Z,96.01
2022-08-30T05:23:07.606Z,95.88
2022-08-30T05:25:38.716Z,95.95
2022-08-30T05:28:05.470Z,96.18
2022-08-30T05:30:34.624Z,95.64
2022-08-30T05:33:02.261Z,95.83
2022-08-30T05:35:29.166Z,95.32
2022-08-30T05:37:55.679Z,95.32
2022-08-30T05:40:22.710Z,95.27
2022-08-30T05:42:49.441Z,94.77
2022-08-30T05:45:16.263Z,94.85
2022-08-30T05:47:42.739Z,90.59
2022-08-30T05:50:09.675Z,88.14
2022-08-30T05:52:40.720Z,85.46
2022-08-30T05:55:08.081Z,77.36
2022-08-30T05:57:36.360Z,72.01
2022-08-30T06:00:06.774Z,67.98
2022-08-30T06:02:38.770Z,65.54
2022-08-30T06:05:05.598Z,64.88
2022-08-30T06:07:32.278Z,63.45
2022-08-30T06:09:58.711Z,63.05
2022-08-30T06:12:25.660Z,61.66
2022-08-30T06:14:52.079Z,61.24
2022-08-30T06:17:21.628Z,61.27
2022-08-30T06:19:48.158Z,61.80
2022-08-30T06:22:14.736Z,62.05
2022-08-30T06:24:56.964Z,61.31
2022-08-30T06:27:24.144Z,62.32
2022-08-30T06:29:52.276Z,63.05
2022-08-30T06:32:19.247Z,64.13
2022-08-30T06:34:45.688Z,65.81
2022-08-30T06:37:12.168Z,66.37
2022-08-30T06:39:57.444Z,68.36
2022-08-30T06:42:24.480Z,69.03
2022-08-30T06:44:51.485Z,68.37
2022-08-30T06:47:18.124Z,67.59
2022-08-30T06:49:44.553Z,68.17
2022-08-30T06:52:11.585Z,68.00
2022-08-30T06:54:38.391Z,68.33
2022-08-30T06:57:04.808Z,68.75
2022-08-30T06:59:32.307Z,68.50
2022-08-30T07:01:59.180Z,67.99
2022-08-30T07:04:26.510Z,68.35
2022-08-30T07:06:53.169Z,68.62
2022-08-30T07:09:22.850Z,67.31
2022-08-30T07:11:50.299Z,67.20
2022-08-30T07:14:16.708Z,66.45
2022-08-30T07:16:44.183Z,66.41
2022-08-30T07:19:19.415Z,66.21
2022-08-30T07:21:48.823Z,65.69
2022-08-30T07:24:16.970Z,65.81
2022-08-30T07:26:48.814Z,64.18
2022-08-30T07:29:16.680Z,63.85
2022-08-30T07:31:43.575Z,63.40
2022-08-30T07:34:10.345Z,62.64
2022-08-30T07:36:38.179Z,63.30
2022-08-30T07:39:06.214Z,62.04
2022-08-30T07:41:38.379Z,61.33
2022-08-30T07:44:06.326Z,61.03
2022-08-30T07:46:32.854Z,60.38
2022-08-30T07:49:00.818Z,59.50
2022-08-30T07:51:31.183Z,60.06
2022-08-30T07:53:57.761Z,57.89
2022-08-30T07:56:24.960Z,56.88
2022-08-30T07:58:51.464Z,54.76
2022-08-30T08:01:19.098Z,54.95
2022-08-30T08:03:46.610Z,53.86
2022-08-30T08:06:14.750Z,53.70
2022-08-30T08:08:42.128Z,53.63
2022-08-30T08:11:16.360Z,52.39
2022-08-30T08:13:53.606Z,51.78
2022-08-30T08:16:29.720Z,52.59
2022-08-30T08:18:56.919Z,51.45
2022-08-30T08:21:24.736Z,51.46
2022-08-30T08:23:51.821Z,51.84
2022-08-30T08:26:19.220Z,51.81
2022-08-30T08:28:47.027Z,50.61
2022-08-30T08:31:28.751Z,50.60
2022-08-30T08:34:02.896Z,50.50
2022-08-30T08:36:31.203Z,49.44
2022-08-30T08:38:58.487Z,49.91
2022-08-30T08:41:41.841Z,49.64
2022-08-30T08:44:40.669Z,50.32
2022-08-30T08:47:15.110Z,48.81
2022-08-30T08:49:45.800Z,47.78
2022-08-30T08:52:38.399Z,48.14
2022-08-30T08:55:13.984Z,48.75
2022-08-30T08:57:41.115Z,46.76
2022-08-30T09:00:11.252Z,47.60
2022-08-30T09:03:10.877Z,48.16
2022-08-30T09:05:40.439Z,46.05
2022-08-30T09:08:11.475Z,46.09
2022-08-30T09:10:50.494Z,46.07
2022-08-30T09:13:19.042Z,46.01
2022-08-30T09:15:45.863Z,46.24
2022-08-30T09:18:19.333Z,46.96
2022-08-30T09:20:50.441Z,45.74
2022-08-30T09:23:17.371Z,45.61
2022-08-30T09:25:53.128Z,45.48
2022-08-30T09:28:31.664Z,46.00
2022-08-30T09:31:11.354Z,44.85
2022-08-30T09:33:38.491Z,45.01
2022-08-30T09:36:22.477Z,45.68
2022-08-30T09:38:58.693Z,44.47
2022-08-30T09:41:37.929Z,42.89
2022-08-30T09:44:28.049Z,43.45
2022-08-30T09:46:57.551Z,42.17
2022-08-30T09:49:39.217Z,43.15
2022-08-30T09:52:39.700Z,43.65
2022-08-30T09:55:26.659Z,43.23
2022-08-30T09:58:09.796Z,42.55
2022-08-30T10:00:53.178Z,43.50
2022-08-30T10:03:40.322Z,43.39
2022-08-30T10:06:21.949Z,42.60
2022-08-30T10:09:08.964Z,45.38
2022-08-30T10:11:54.680Z,41.85
2022-08-30T10:14:33.324Z,41.15
2022-08-30T10:17:15.981Z,41.96
2022-08-30T10:20:18.333Z,42.75
2022-08-30T10:22:54.378Z,42.18
2022-08-30T10:25:37.309Z,43.06
2022-08-30T10:28:15.948Z,42.69
2022-08-30T10:30:48.358Z,42.59
2022-08-30T10:33:20.956Z,42.25
2022-08-30T10:36:00.474Z,42.16
2022-08-30T10:38:31.941Z,41.98
2022-08-30T10:41:25.221Z,42.75
2022-08-30T10:44:02.185Z,41.25
2022-08-30T10:46:37.695Z,40.95
2022-08-30T10:49:12.037Z,40.51
2022-08-30T10:52:32.907Z,41.59
2022-08-30T10:55:28.931Z,41.51
2022-08-30T10:58:06.240Z,40.62
2022-08-30T11:00:45.633Z,41.59
2022-08-30T11:03:30.776Z,41.38
2022-08-30T11:06:06.036Z,40.27
2022-08-30T11:09:08.900Z,42.06
2022-08-30T11:11:50.566Z,39.93
2022-08-30T11:14:19.650Z,40.26
2022-08-30T11:16:54.807Z,41.02
2022-08-30T11:19:26.373Z,40.67
2022-08-30T11:22:13.975Z,40.46
2022-08-30T11:24:58.431Z,40.57
2022-08-30T11:27:45.641Z,40.59
2022-08-30T11:30:23.928Z,39.99
2022-08-30T11:33:09.424Z,40.61
2022-08-30T11:35:48.089Z,39.61
2022-08-30T11:38:27.332Z,39.88
2022-08-30T11:40:57.726Z,38.86
2022-08-30T11:43:39.648Z,39.96
2022-08-30T11:46:15.340Z,40.97
2022-08-30T11:48:53.826Z,38.98
2022-08-30T11:51:37.761Z,39.80
2022-08-30T11:54:22.833Z,39.96
2022-08-30T11:57:03.611Z,39.87
2022-08-30T12:00:01.984Z,39.77
2022-08-30T12:02:52.967Z,40.06
2022-08-30T12:05:40.868Z,40.46
2022-08-30T12:08:10.083Z,40.07
2022-08-30T12:10:59.229Z,39.82
2022-08-30T12:13:53.008Z,40.13
2022-08-30T12:16:22.301Z,39.44
2022-08-30T12:18:53.412Z,39.15
2022-08-30T12:21:21.563Z,38.55
2022-08-30T12:23:54.408Z,38.81
2022-08-30T12:26:42.908Z,39.67
2022-08-30T12:29:18.759Z,38.40
2022-08-30T12:31:59.435Z,39.86
2022-08-30T12:34:43.424Z,39.82
2022-08-30T12:37:21.629Z,38.94
2022-08-30T12:39:59.882Z,39.67
2022-08-30T12:42:30.466Z,39.62
2022-08-30T12:45:00.535Z,39.79
2022-08-30T12:47:45.490Z,39.79
2022-08-30T12:50:16.736Z,39.34
2022-08-30T12:53:13.057Z,40.76
2022-08-30T12:56:00.393Z,42.59
2022-08-30T12:58:43.369Z,42.66
2022-08-30T13:01:28.827Z,42.83
2022-08-30T13:03:57.411Z,42.39
2022-08-30T13:06:58.626Z,42.86
2022-08-30T13:09:34.562Z,43.94
2022-08-30T13:12:22.884Z,42.89
2022-08-30T13:14:52.514Z,43.16
2022-08-30T13:17:18.949Z,43.03
2022-08-30T13:20:11.449Z,43.31
2022-08-30T13:22:40.521Z,42.70
2022-08-30T13:25:09.663Z,43.22
2022-08-30T13:27:37.926Z,42.35
2022-08-30T13:30:14.600Z,42.91
2022-08-30T13:32:42.148Z,42.52
2022-08-30T13:35:09.739Z,42.72
2022-08-30T13:37:50.059Z,42.26
2022-08-30T13:40:18.034Z,42.54
2022-08-30T13:42:45.127Z,41.95
2022-08-30T13:48:01.194Z,42.72
2022-08-30T13:50:27.720Z,42.37
2022-08-30T13:52:54.159Z,42.46
2022-08-30T13:55:20.564Z,42.65
2022-08-30T13:57:55.277Z,42.15
2022-08-30T14:00:23.471Z,43.04
2022-08-30T14:02:54.824Z,42.24
2022-08-30T14:05:47.582Z,42.46
2022-08-30T14:11:00.723Z,42.44
2022-08-30T14:13:29.274Z,42.06
2022-08-30T14:18:46.190Z,42.30
2022-08-30T14:21:12.631Z,41.76
2022-08-30T14:23:39.254Z,41.82
2022-08-30T14:26:11.910Z,41.10
2022-08-30T14:28:38.452Z,42.49
2022-08-30T14:31:05.341Z,41.87
2022-08-30T14:33:33.486Z,41.34
2022-08-30T14:36:00.049Z,42.36
2022-08-30T14:38:26.524Z,41.76
2022-08-30T14:40:52.964Z,41.59
2022-08-30T14:43:19.372Z,42.41
2022-08-30T14:45:46.154Z,42.03
2022-08-30T14:48:12.896Z,41.96
2022-08-30T14:50:41.672Z,42.05
2022-08-30T14:53:08.328Z,42.36
2022-08-30T14:55:35.457Z,41.92
2022-08-30T14:58:02.198Z,41.81
2022-08-30T15:00:30.606Z,43.19
2022-08-30T15:02:57.108Z,41.95
2022-08-30T15:05:23.576Z,42.10
2022-08-30T15:07:51.380Z,42.39
2022-08-30T15:10:20.015Z,42.72
2022-08-30T15:12:51.337Z,42.33
2022-08-30T15:15:21.584Z,41.97
2022-08-30T15:17:48.845Z,42.63
2022-08-30T15:20:18.752Z,43.55
2022-08-30T15:22:46.097Z,42.74
2022-08-30T15:25:13.756Z,44.36
2022-08-30T15:27:40.300Z,42.98
2022-08-30T15:30:07.698Z,42.77
2022-08-30T15:32:37.449Z,43.30
2022-08-30T15:35:04.827Z,41.99
2022-08-30T15:37:32.366Z,42.33
2022-08-30T15:39:58.979Z,42.42
2022-08-30T15:42:26.529Z,42.50
2022-08-30T15:44:54.679Z,42.49
2022-08-30T15:47:23.068Z,43.29
2022-08-30T15:50:01.132Z,42.67
2022-08-30T15:52:28.115Z,42.90
2022-08-30T15:54:54.715Z,43.04
2022-08-30T15:57:22.035Z,42.92
2022-08-30T15:59:48.792Z,43.26
2022-08-30T16:02:15.450Z,42.89
2022-08-30T16:04:43.833Z,43.18
2022-08-30T16:07:10.360Z,43.23
2022-08-30T16:09:36.902Z,42.60
2022-08-30T16:12:06.380Z,42.86
2022-08-30T16:14:33.548Z,42.79
2022-08-30T16:17:00.338Z,42.55
2022-08-30T16:19:26.934Z,41.98
2022-08-30T16:21:53.434Z,42.72
2022-08-30T16:24:22.381Z,42.74
2022-08-30T16:26:49.522Z,42.92
2022-08-30T16:29:15.958Z,42.59
2022-08-30T16:31:44.126Z,43.44
2022-08-30T16:34:13.615Z,42.44
2022-08-30T16:36:40.138Z,42.52
2022-08-30T16:39:08.695Z,42.10
2022-08-30T16:41:37.724Z,42.54
2022-08-30T16:44:05.577Z,42.64
2022-08-30T16:46:33.660Z,42.10
2022-08-30T16:49:02.126Z,43.10
2022-08-30T16:51:31.558Z,42.85
2022-08-30T16:54:02.381Z,43.17
2022-08-30T16:56:31.036Z,42.68
2022-08-30T16:59:02.058Z,42.77
2022-08-30T17:01:32.336Z,43.16
2022-08-30T17:04:01.259Z,42.77
2022-08-30T17:06:27.871Z,43.57
2022-08-30T17:08:56.317Z,43.79
2022-08-30T17:11:41.022Z,43.92
2022-08-30T17:14:08.250Z,43.50
2022-08-30T17:16:35.725Z,43.75
2022-08-30T17:19:04.202Z,44.15
2022-08-30T17:21:32.131Z,44.60
2022-08-30T17:24:02.052Z,44.32
2022-08-30T17:26:31.215Z,44.57
2022-08-30T17:28:57.896Z,45.15
2022-08-30T17:31:27.548Z,45.41
2022-08-30T17:34:00.505Z,45.58
2022-08-30T17:36:27.682Z,45.72
2022-08-30T17:38:54.162Z,45.67
2022-08-30T17:41:20.860Z,46.04
2022-08-30T17:43:47.300Z,46.25
2022-08-30T17:46:18.444Z,46.67
2022-08-30T17:48:46.308Z,46.98
2022-08-30T17:51:12.950Z,46.96
2022-08-30T17:53:39.591Z,47.53
2022-08-30T17:56:08.693Z,47.83
2022-08-30T17:58:35.220Z,48.03
2022-08-30T18:01:11.721Z,48.01
2022-08-30T18:03:39.119Z,48.37
2022-08-30T18:06:06.605Z,48.63
2022-08-30T18:08:34.584Z,49.08
2022-08-30T18:11:01.088Z,49.21
2022-08-30T18:13:27.548Z,49.37
2022-08-30T18:15:54.115Z,49.64
2022-08-30T18:18:21.305Z,49.95
2022-08-30T18:20:47.979Z,50.14
2022-08-30T18:23:14.691Z,50.39
2022-08-30T18:25:42.212Z,50.63
2022-08-30T18:28:09.105Z,50.64
2022-08-30T18:30:41.620Z,51.18
2022-08-30T18:33:09.162Z,51.50
2022-08-30T18:35:37.496Z,51.70
2022-08-30T18:38:04.299Z,52.09
2022-08-30T18:40:31.286Z,52.05
2022-08-30T18:42:57.783Z,52.37
2022-08-30T18:45:24.840Z,52.60
2022-08-30T18:47:51.269Z,52.55
2022-08-30T18:50:17.692Z,53.15
2022-08-30T18:52:46.666Z,53.12
2022-08-30T18:55:13.127Z,53.40
2022-08-30T18:57:39.535Z,53.63
2022-08-30T19:00:06.583Z,53.52
2022-08-30T19:02:33.125Z,53.72
2022-08-30T19:04:59.658Z,54.44
2022-08-30T19:07:34.397Z,54.59
2022-08-30T19:10:05.375Z,54.81
2022-08-30T19:12:31.865Z,55.05
2022-08-30T19:14:59.264Z,55.50
2022-08-30T19:17:26.400Z,55.60
2022-08-30T19:19:53.288Z,56.07
2022-08-30T19:22:21.749Z,56.04
2022-08-30T19:24:49.979Z,56.43
2022-08-30T19:27:18.986Z,56.78
2022-08-30T19:29:52.973Z,56.96
2022-08-30T19:32:20.367Z,57.10
2022-08-30T19:34:46.835Z,57.73
2022-08-30T19:37:14.834Z,57.99
2022-08-30T19:39:46.840Z,58.50
2022-08-30T19:42:13.530Z,58.85
2022-08-30T19:44:39.924Z,58.99
2022-08-30T19:47:06.557Z,59.36
2022-08-30T19:49:34.717Z,58.89
2022-08-30T19:52:01.730Z,59.55
2022-08-30T19:54:28.156Z,60.09
2022-08-30T19:56:54.610Z,60.04
2022-08-30T19:59:21.025Z,59.99
2022-08-30T20:01:48.331Z,60.75
2022-08-30T20:04:15.859Z,61.37
2022-08-30T20:06:42.491Z,61.46
2022-08-30T20:09:10.500Z,62.01
2022-08-30T20:11:38.805Z,62.45
2022-08-30T20:14:06.368Z,63.08
2022-08-30T20:16:37.089Z,62.74
2022-08-30T20:19:07.649Z,63.35
2022-08-30T20:21:34.297Z,63.72
2022-08-30T20:24:02.877Z,64.69
2022-08-30T20:26:34.181Z,64.74
2022-08-30T20:29:02.455Z,64.85
2022-08-30T20:31:29.270Z,65.50
2022-08-30T20:33:55.746Z,65.74
2022-08-30T20:36:22.957Z,66.06
2022-08-30T20:38:50.032Z,66.31
2022-08-30T20:41:17.447Z,66.82
2022-08-30T20:43:44.891Z,66.87
2022-08-30T20:46:16.991Z,66.66
2022-08-30T20:48:44.287Z,67.83
2022-08-30T20:51:14.358Z,67.28
2022-08-30T20:53:41.242Z,67.95
2022-08-30T20:56:13.539Z,67.70
2022-08-30T20:58:39.980Z,68.63
2022-08-30T21:01:08.754Z,68.38
2022-08-30T21:03:36.655Z,68.52
2022-08-30T21:06:03.775Z,69.25
2022-08-30T21:08:30.452Z,68.75
2022-08-30T21:10:57.260Z,69.26
2022-08-30T21:13:23.758Z,69.84
2022-08-30T21:15:55.162Z,69.40
2022-08-30T21:18:30.054Z,69.89
2022-08-30T21:20:56.947Z,69.99
2022-08-30T21:23:23.977Z,69.75
2022-08-30T21:25:50.442Z,69.85
2022-08-30T21:28:17.813Z,70.19
2022-08-30T21:30:44.575Z,70.53
2022-08-30T21:33:11.030Z,70.49
2022-08-30T21:35:56.115Z,70.28
2022-08-30T21:38:22.720Z,71.04
2022-08-30T21:40:49.432Z,70.64
2022-08-30T21:43:16.530Z,70.61
2022-08-30T21:45:45.056Z,70.62
2022-08-30T21:48:13.002Z,71.13
2022-08-30T21:50:41.845Z,70.47
2022-08-30T21:53:08.771Z,70.65
2022-08-30T21:55:35.253Z,71.06
2022-08-30T21:58:01.678Z,70.59
2022-08-30T22:00:30.057Z,70.49
2022-08-30T22:02:56.542Z,70.91
2022-08-30T22:05:23.039Z,70.78
2022-08-30T22:07:49.601Z,70.97
2022-08-30T22:10:16.182Z,71.16
2022-08-30T22:12:42.609Z,71.06
2022-08-30T22:15:10.059Z,71.13
2022-08-30T22:17:36.512Z,71.13
2022-08-30T22:20:05.120Z,70.73
2022-08-30T22:22:32.101Z,70.88
2022-08-30T22:24:58.692Z,70.83
2022-08-30T22:27:25.533Z,71.43
2022-08-30T22:29:52.037Z,71.20
2022-08-30T22:32:18.792Z,71.61
2022-08-30T22:34:46.055Z,71.03
2022-08-30T22:37:12.500Z,71.08
2022-08-30T22:39:39.032Z,71.37
2022-08-30T22:42:05.704Z,71.34
2022-08-30T22:44:32.354Z,71.06
2022-08-30T22:47:00.556Z,71.35
2022-08-30T22:49:27.028Z,70.97
2022-08-30T22:51:53.459Z,70.89
2022-08-30T22:54:20.009Z,71.04
2022-08-30T22:56:46.774Z,71.32
2022-08-30T22:59:13.262Z,71.36
2022-08-30T23:01:43.145Z,71.20
2022-08-30T23:04:11.257Z,71.07
2022-08-30T23:06:37.739Z,71.43
2022-08-30T23:09:06.063Z,71.34
2022-08-30T23:11:33.391Z,71.47
2022-08-30T23:14:01.088Z,71.30
2022-08-30T23:16:27.558Z,71.54
2022-08-30T23:18:54.155Z,71.62
2022-08-30T23:21:23.463Z,71.34
2022-08-30T23:24:10.367Z,71.62
2022-08-30T23:26:55.733Z,71.59
2022-08-30T23:29:41.112Z,71.52
2022-08-30T23:32:26.039Z,71.63
2022-08-30T23:35:11.474Z,71.83
2022-08-30T23:37:56.477Z,71.70
2022-08-30T23:40:41.773Z,71.91
2022-08-30T23:43:28.418Z,72.08
2022-08-30T23:46:18.807Z,71.80
2022-08-30T23:49:08.994Z,72.26
2022-08-30T23:51:56.247Z,72.23
2022-08-30T23:54:42.602Z,72.28
2022-08-30T23:57:27.782Z,71.83
